Wright Patterson Air Force Base Dayton US
ICAO: KFFO
IATA: FFO
Category: Large
Scheduled Services: No

Elevation: 823 ft
TransAlt. 18000 ft.

Airport Communications:
DAYTON APP/DEP:118.85
ATIS:124.475
GND:121.8
PMSV METRO:34.46
445AW AFRC COMD POST:34.94
PTD:122.85
PATTERSON TWR:126.9

KFFO Zoom In..

Runways:

(A) RW 05L length 12600 ft width 300 ft
ILS 109.70 / hdg 53

(B) RW 05R length 7000 ft width 150 ft
---- / hdg 53

(C) RW 23L length 7000 ft width 150 ft
---- / hdg 233

(D) RW 23R length 12600 ft width 300 ft
ILS 109.70 / hdg 233

Location; KFFO
Day. 26 / Time. 03.56 Zulu
* Altimeter: 29.88
* Temperature: 20° c. 68°f.
* Wind from: 000° Speed 00 kn.
Dewpoint: 14° c.
Visibility: 10 Statute Miles.
Clouds: Clear (automated report).

KFFO 260356Z 00000KT 10SM CLR 20/14 A2988 RMK AO2A SLP114 T02030142


Wind - Calm.

 
 
jpsmedia.com for Web Design SOUNDCLOUD worldairports.se 2018   terms of use